sensor_id;sensor_type;location;lat;lon;timestamp;pressure;altitude;pressure_sealevel;temperature;humidity
49342;BME280;35210;41.606;-87.602;2023-05-19T00:01:48;99350.34;;;24.47;30.23
49342;BME280;35210;41.606;-87.602;2023-05-19T00:04:18;99351.59;;;24.45;30.77
49342;BME280;35210;41.606;-87.602;2023-05-19T00:06:49;99352.84;;;24.49;30.58
49342;BME280;35210;41.606;-87.602;2023-05-19T00:09:18;99345.38;;;24.51;30.72
49342;BME280;35210;41.606;-87.602;2023-05-19T00:11:46;99343.72;;;24.50;30.34
49342;BME280;35210;41.606;-87.602;2023-05-19T00:14:15;99344.56;;;24.44;30.80
49342;BME280;35210;41.606;-87.602;2023-05-19T00:16:43;99344.34;;;24.45;30.64
49342;BME280;35210;41.606;-87.602;2023-05-19T00:19:14;99345.78;;;24.41;30.91
49342;BME280;35210;41.606;-87.602;2023-05-19T00:21:42;99341.22;;;24.35;31.01
49342;BME280;35210;41.606;-87.602;2023-05-19T00:24:10;99344.34;;;24.32;31.18
49342;BME280;35210;41.606;-87.602;2023-05-19T00:26:38;99344.16;;;24.27;31.38
49342;BME280;35210;41.606;-87.602;2023-05-19T00:29:06;99346.00;;;24.27;31.09
49342;BME280;35210;41.606;-87.602;2023-05-19T00:31:34;99342.91;;;24.30;31.17
49342;BME280;35210;41.606;-87.602;2023-05-19T00:34:03;99339.38;;;24.29;31.19
49342;BME280;35210;41.606;-87.602;2023-05-19T00:36:33;99344.56;;;24.31;31.99
49342;BME280;35210;41.606;-87.602;2023-05-19T00:39:02;99350.34;;;24.21;31.30
49342;BME280;35210;41.606;-87.602;2023-05-19T00:41:30;99345.38;;;24.18;31.09
49342;BME280;35210;41.606;-87.602;2023-05-19T00:43:58;99342.03;;;24.16;31.04
49342;BME280;35210;41.606;-87.602;2023-05-19T00:46:27;99340.78;;;24.12;31.26
49342;BME280;35210;41.606;-87.602;2023-05-19T00:48:55;99342.03;;;24.09;31.52
49342;BME280;35210;41.606;-87.602;2023-05-19T00:51:25;99332.50;;;24.07;31.47
49342;BME280;35210;41.606;-87.602;2023-05-19T00:53:56;99333.72;;;23.98;31.66
49342;BME280;35210;41.606;-87.602;2023-05-19T00:56:25;99340.56;;;23.87;30.99
49342;BME280;35210;41.606;-87.602;2023-05-19T00:58:54;99338.28;;;23.84;31.38
49342;BME280;35210;41.606;-87.602;2023-05-19T01:01:22;99340.75;;;23.79;31.38
49342;BME280;35210;41.606;-87.602;2023-05-19T01:03:51;99343.28;;;23.74;31.64
49342;BME280;35210;41.606;-87.602;2023-05-19T01:06:21;99340.38;;;23.69;31.83
49342;BME280;35210;41.606;-87.602;2023-05-19T01:08:50;99343.47;;;23.66;31.89
49342;BME280;35210;41.606;-87.602;2023-05-19T01:11:21;99340.34;;;23.55;31.63
49342;BME280;35210;41.606;-87.602;2023-05-19T01:13:49;99342.75;;;23.44;31.45
49342;BME280;35210;41.606;-87.602;2023-05-19T01:16:23;99340.44;;;23.34;31.49
49342;BME280;35210;41.606;-87.602;2023-05-19T01:18:58;99343.94;;;23.28;31.56
49342;BME280;35210;41.606;-87.602;2023-05-19T01:21:46;99342.47;;;23.19;31.67
49342;BME280;35210;41.606;-87.602;2023-05-19T01:24:39;99345.56;;;23.16;31.29
49342;BME280;35210;41.606;-87.602;2023-05-19T01:27:29;99342.63;;;23.11;31.35
49342;BME280;35210;41.606;-87.602;2023-05-19T01:30:26;99341.38;;;23.07;30.97
49342;BME280;35210;41.606;-87.602;2023-05-19T01:32:58;99345.28;;;22.98;30.65
49342;BME280;35210;41.606;-87.602;2023-05-19T01:35:28;99333.47;;;22.92;31.40
49342;BME280;35210;41.606;-87.602;2023-05-19T01:38:00;99346.28;;;22.90;30.85
49342;BME280;35210;41.606;-87.602;2023-05-19T01:40:29;99351.84;;;22.82;30.73
49342;BME280;35210;41.606;-87.602;2023-05-19T01:43:00;99342.53;;;22.84;30.28
49342;BME280;35210;41.606;-87.602;2023-05-19T01:45:33;99350.38;;;22.79;30.01
49342;BME280;35210;41.606;-87.602;2023-05-19T01:48:03;99350.84;;;22.61;29.67
49342;BME280;35210;41.606;-87.602;2023-05-19T01:50:32;99349.81;;;22.62;29.81
49342;BME280;35210;41.606;-87.602;2023-05-19T01:53:00;99358.09;;;22.61;29.68
49342;BME280;35210;41.606;-87.602;2023-05-19T01:55:29;99367.34;;;22.52;29.98
49342;BME280;35210;41.606;-87.602;2023-05-19T01:58:08;99358.25;;;22.53;29.29
49342;BME280;35210;41.606;-87.602;2023-05-19T02:00:53;99360.69;;;22.48;29.41
49342;BME280;35210;41.606;-87.602;2023-05-19T02:03:36;99365.44;;;22.46;29.50
49342;BME280;35210;41.606;-87.602;2023-05-19T02:06:21;99366.91;;;22.48;28.91
49342;BME280;35210;41.606;-87.602;2023-05-19T02:08:56;99368.09;;;22.39;28.88
49342;BME280;35210;41.606;-87.602;2023-05-19T02:11:30;99370.34;;;22.36;29.44
49342;BME280;35210;41.606;-87.602;2023-05-19T02:14:01;99372.13;;;22.28;29.78
49342;BME280;35210;41.606;-87.602;2023-05-19T02:16:33;99371.28;;;22.21;29.32
49342;BME280;35210;41.606;-87.602;2023-05-19T02:19:02;99377.63;;;22.14;29.02
49342;BME280;35210;41.606;-87.602;2023-05-19T02:21:30;99373.84;;;22.08;29.12
49342;BME280;35210;41.606;-87.602;2023-05-19T02:23:58;99382.03;;;22.00;29.32
49342;BME280;35210;41.606;-87.602;2023-05-19T02:26:26;99378.63;;;21.91;28.89
49342;BME280;35210;41.606;-87.602;2023-05-19T02:28:54;99378.94;;;21.82;28.90
49342;BME280;35210;41.606;-87.602;2023-05-19T02:31:22;99371.91;;;21.81;28.65
49342;BME280;35210;41.606;-87.602;2023-05-19T02:33:53;99376.19;;;21.75;28.85
49342;BME280;35210;41.606;-87.602;2023-05-19T02:36:21;99381.31;;;21.70;28.74
49342;BME280;35210;41.606;-87.602;2023-05-19T02:38:49;99379.56;;;21.62;29.13
49342;BME280;35210;41.606;-87.602;2023-05-19T02:41:17;99379.06;;;21.52;29.37
49342;BME280;35210;41.606;-87.602;2023-05-19T02:43:47;99388.78;;;21.53;28.60
49342;BME280;35210;41.606;-87.602;2023-05-19T02:46:15;99391.88;;;21.50;28.44
49342;BME280;35210;41.606;-87.602;2023-05-19T02:48:43;99394.19;;;21.39;28.80
49342;BME280;35210;41.606;-87.602;2023-05-19T02:51:12;99391.44;;;21.32;28.83
49342;BME280;35210;41.606;-87.602;2023-05-19T02:53:41;99399.28;;;21.19;28.87
49342;BME280;35210;41.606;-87.602;2023-05-19T02:56:09;99392.91;;;21.05;29.03
49342;BME280;35210;41.606;-87.602;2023-05-19T02:58:37;99391.34;;;21.11;28.90
49342;BME280;35210;41.606;-87.602;2023-05-19T03:01:05;99386.72;;;21.05;29.07
49342;BME280;35210;41.606;-87.602;2023-05-19T03:03:34;99375.50;;;21.01;28.78
49342;BME280;35210;41.606;-87.602;2023-05-19T03:06:02;99388.56;;;20.89;28.79
49342;BME280;35210;41.606;-87.602;2023-05-19T03:08:35;99379.50;;;20.90;28.96
49342;BME280;35210;41.606;-87.602;2023-05-19T03:11:03;99379.50;;;20.90;29.53
49342;BME280;35210;41.606;-87.602;2023-05-19T03:13:31;99379.03;;;20.87;29.37
49342;BME280;35210;41.606;-87.602;2023-05-19T03:16:00;99375.63;;;20.78;28.99
49342;BME280;35210;41.606;-87.602;2023-05-19T03:18:30;99369.81;;;20.75;29.63
49342;BME280;35210;41.606;-87.602;2023-05-19T03:20:58;99373.78;;;20.64;29.75
49342;BME280;35210;41.606;-87.602;2023-05-19T03:23:26;99368.78;;;20.61;29.76
49342;BME280;35210;41.606;-87.602;2023-05-19T03:25:56;99364.25;;;20.61;30.24
49342;BME280;35210;41.606;-87.602;2023-05-19T03:28:25;99367.28;;;20.44;29.47
49342;BME280;35210;41.606;-87.602;2023-05-19T03:30:53;99364.41;;;20.45;30.32
49342;BME280;35210;41.606;-87.602;2023-05-19T03:33:21;99364.06;;;20.25;29.65
49342;BME280;35210;41.606;-87.602;2023-05-19T03:35:50;99364.06;;;20.25;29.94
49342;BME280;35210;41.606;-87.602;2023-05-19T03:38:18;99358.69;;;20.25;29.91
49342;BME280;35210;41.606;-87.602;2023-05-19T03:40:46;99357.22;;;20.23;30.02
49342;BME280;35210;41.606;-87.602;2023-05-19T03:43:15;99363.47;;;20.15;29.57
49342;BME280;35210;41.606;-87.602;2023-05-19T03:45:44;99368.28;;;20.05;29.83
49342;BME280;35210;41.606;-87.602;2023-05-19T03:48:12;99371.69;;;19.99;29.78
49342;BME280;35210;41.606;-87.602;2023-05-19T03:50:41;99364.13;;;20.02;30.11
49342;BME280;35210;41.606;-87.602;2023-05-19T03:53:09;99362.66;;;20.15;30.02
49342;BME280;35210;41.606;-87.602;2023-05-19T03:55:38;99359.50;;;20.11;30.43
49342;BME280;35210;41.606;-87.602;2023-05-19T03:58:06;99359.41;;;20.05;29.98
49342;BME280;35210;41.606;-87.602;2023-05-19T04:00:38;99355.84;;;19.89;30.35
49342;BME280;35210;41.606;-87.602;2023-05-19T04:03:06;99359.25;;;19.83;30.26
49342;BME280;35210;41.606;-87.602;2023-05-19T04:05:34;99351.16;;;19.91;30.68
49342;BME280;35210;41.606;-87.602;2023-05-19T04:08:03;99352.69;;;19.86;30.23
49342;BME280;35210;41.606;-87.602;2023-05-19T04:10:31;99352.41;;;19.81;30.22
49342;BME280;35210;41.606;-87.602;2023-05-19T04:12:59;99360.72;;;19.86;30.33
49342;BME280;35210;41.606;-87.602;2023-05-19T04:15:28;99354.31;;;19.72;30.20
49342;BME280;35210;41.606;-87.602;2023-05-19T04:17:58;99356.03;;;19.65;31.04
49342;BME280;35210;41.606;-87.602;2023-05-19T04:20:27;99353.53;;;19.63;30.51
49342;BME280;35210;41.606;-87.602;2023-05-19T04:22:55;99355.91;;;19.58;30.63
49342;BME280;35210;41.606;-87.602;2023-05-19T04:25:24;99353.16;;;19.66;30.85
49342;BME280;35210;41.606;-87.602;2023-05-19T04:27:53;99358.94;;;19.47;31.25
49342;BME280;35210;41.606;-87.602;2023-05-19T04:30:23;99367.34;;;19.44;30.78
49342;BME280;35210;41.606;-87.602;2023-05-19T04:32:51;99360.44;;;19.58;31.22
49342;BME280;35210;41.606;-87.602;2023-05-19T04:35:21;99356.03;;;19.65;31.04
49342;BME280;35210;41.606;-87.602;2023-05-19T04:37:49;99358.59;;;19.58;30.47
49342;BME280;35210;41.606;-87.602;2023-05-19T04:40:19;99365.84;;;19.42;31.25
49342;BME280;35210;41.606;-87.602;2023-05-19T04:42:48;99361.97;;;19.44;31.83
49342;BME280;35210;41.606;-87.602;2023-05-19T04:45:17;99368.69;;;19.40;31.08
49342;BME280;35210;41.606;-87.602;2023-05-19T04:47:45;99364.66;;;19.44;31.38
49342;BME280;35210;41.606;-87.602;2023-05-19T04:50:14;99371.66;;;19.22;30.92
49342;BME280;35210;41.606;-87.602;2023-05-19T04:52:44;99362.38;;;19.33;31.01
49342;BME280;35210;41.606;-87.602;2023-05-19T04:55:12;99361.94;;;19.29;31.30
49342;BME280;35210;41.606;-87.602;2023-05-19T04:57:41;99370.47;;;19.25;31.46
49342;BME280;35210;41.606;-87.602;2023-05-19T05:00:11;99365.06;;;19.33;31.51
49342;BME280;35210;41.606;-87.602;2023-05-19T05:02:39;99350.00;;;19.32;31.44
49342;BME280;35210;41.606;-87.602;2023-05-19T05:05:08;99356.41;;;19.31;31.42
49342;BME280;35210;41.606;-87.602;2023-05-19T05:07:36;99352.97;;;19.37;31.65
49342;BME280;35210;41.606;-87.602;2023-05-19T05:10:08;99346.97;;;19.35;31.92
49342;BME280;35210;41.606;-87.602;2023-05-19T05:12:37;99351.09;;;19.23;31.79
49342;BME280;35210;41.606;-87.602;2023-05-19T05:15:06;99342.75;;;19.18;32.01
49342;BME280;35210;41.606;-87.602;2023-05-19T05:17:36;99349.28;;;19.38;32.12
49342;BME280;35210;41.606;-87.602;2023-05-19T05:20:05;99346.31;;;19.33;32.35
49342;BME280;35210;41.606;-87.602;2023-05-19T05:22:36;99339.06;;;19.42;32.17
49342;BME280;35210;41.606;-87.602;2023-05-19T05:25:11;99330.84;;;19.43;32.25
49342;BME280;35210;41.606;-87.602;2023-05-19T05:27:40;99327.22;;;19.36;32.49
49342;BME280;35210;41.606;-87.602;2023-05-19T05:30:09;99325.97;;;19.24;32.71
49342;BME280;35210;41.606;-87.602;2023-05-19T05:32:37;99328.97;;;19.29;32.63
49342;BME280;35210;41.606;-87.602;2023-05-19T05:35:06;99317.47;;;19.43;32.76
49342;BME280;35210;41.606;-87.602;2023-05-19T05:37:34;99320.84;;;19.37;32.69
49342;BME280;35210;41.606;-87.602;2023-05-19T05:40:02;99320.50;;;19.40;33.03
49342;BME280;35210;41.606;-87.602;2023-05-19T05:42:34;99318.66;;;19.41;33.03
49342;BME280;35210;41.606;-87.602;2023-05-19T05:45:03;99317.94;;;19.24;32.93
49342;BME280;35210;41.606;-87.602;2023-05-19T05:47:34;99325.31;;;19.22;33.20
49342;BME280;35210;41.606;-87.602;2023-05-19T05:50:03;99315.41;;;19.30;33.64
49342;BME280;35210;41.606;-87.602;2023-05-19T05:52:33;99313.56;;;19.31;33.67
49342;BME280;35210;41.606;-87.602;2023-05-19T05:55:04;99307.50;;;19.06;33.63
49342;BME280;35210;41.606;-87.602;2023-05-19T05:57:34;99309.31;;;19.14;33.81
49342;BME280;35210;41.606;-87.602;2023-05-19T06:00:02;99306.16;;;19.10;34.39
49342;BME280;35210;41.606;-87.602;2023-05-19T06:02:32;99309.88;;;19.01;34.29
49342;BME280;35210;41.606;-87.602;2023-05-19T06:05:02;99300.97;;;19.09;34.30
49342;BME280;35210;41.606;-87.602;2023-05-19T06:07:30;99301.66;;;19.02;34.36
49342;BME280;35210;41.606;-87.602;2023-05-19T06:09:58;99303.25;;;18.89;34.40
49342;BME280;35210;41.606;-87.602;2023-05-19T06:12:27;99300.13;;;19.08;34.95
49342;BME280;35210;41.606;-87.602;2023-05-19T06:14:57;99293.56;;;19.19;34.89
49342;BME280;35210;41.606;-87.602;2023-05-19T06:17:25;99290.25;;;19.09;34.36
49342;BME280;35210;41.606;-87.602;2023-05-19T06:19:53;99291.59;;;19.13;34.35
49342;BME280;35210;41.606;-87.602;2023-05-19T06:22:21;99298.94;;;19.11;34.37
49342;BME280;35210;41.606;-87.602;2023-05-19T06:24:49;99292.91;;;19.17;34.35
49342;BME280;35210;41.606;-87.602;2023-05-19T06:27:18;99292.91;;;19.17;34.50
49342;BME280;35210;41.606;-87.602;2023-05-19T06:29:46;99295.31;;;19.03;34.84
49342;BME280;35210;41.606;-87.602;2023-05-19T06:32:16;99289.66;;;18.98;34.98
49342;BME280;35210;41.606;-87.602;2023-05-19T06:34:44;99282.75;;;19.04;34.49
49342;BME280;35210;41.606;-87.602;2023-05-19T06:37:19;99290.97;;;19.02;35.04
49342;BME280;35210;41.606;-87.602;2023-05-19T06:39:48;99283.25;;;19.08;35.18
49342;BME280;35210;41.606;-87.602;2023-05-19T06:42:18;99278.03;;;19.14;35.28
49342;BME280;35210;41.606;-87.602;2023-05-19T06:44:48;99287.38;;;19.18;35.22
49342;BME280;35210;41.606;-87.602;2023-05-19T06:47:18;99289.88;;;19.20;35.18
49342;BME280;35210;41.606;-87.602;2023-05-19T06:49:46;99284.91;;;19.31;34.92
49342;BME280;35210;41.606;-87.602;2023-05-19T06:52:16;99288.38;;;19.40;35.21
49342;BME280;35210;41.606;-87.602;2023-05-19T06:54:44;99288.50;;;19.24;35.52
49342;BME280;35210;41.606;-87.602;2023-05-19T06:57:13;99290.88;;;19.19;35.51
49342;BME280;35210;41.606;-87.602;2023-05-19T06:59:41;99282.53;;;19.14;35.83
49342;BME280;35210;41.606;-87.602;2023-05-19T07:02:11;99279.69;;;19.15;36.14
49342;BME280;35210;41.606;-87.602;2023-05-19T07:04:41;99276.63;;;19.26;36.02
49342;BME280;35210;41.606;-87.602;2023-05-19T07:07:09;99277.09;;;19.30;36.35
49342;BME280;35210;41.606;-87.602;2023-05-19T07:09:38;99269.94;;;19.22;36.63
49342;BME280;35210;41.606;-87.602;2023-05-19T07:12:06;99273.50;;;19.15;36.77
49342;BME280;35210;41.606;-87.602;2023-05-19T07:14:34;99269.69;;;19.09;37.46
49342;BME280;35210;41.606;-87.602;2023-05-19T07:17:04;99265.47;;;19.15;37.84
49342;BME280;35210;41.606;-87.602;2023-05-19T07:19:32;99270.53;;;19.10;37.89
49342;BME280;35210;41.606;-87.602;2023-05-19T07:22:02;99264.22;;;19.02;37.96
49342;BME280;35210;41.606;-87.602;2023-05-19T07:24:31;99262.44;;;18.87;38.94
49342;BME280;35210;41.606;-87.602;2023-05-19T07:26:59;99252.94;;;18.84;39.16
49342;BME280;35210;41.606;-87.602;2023-05-19T07:29:27;99250.25;;;18.84;39.55
49342;BME280;35210;41.606;-87.602;2023-05-19T07:31:55;99252.28;;;18.82;40.11
49342;BME280;35210;41.606;-87.602;2023-05-19T07:34:24;99248.94;;;18.80;39.94
49342;BME280;35210;41.606;-87.602;2023-05-19T07:36:52;99252.19;;;18.98;40.44
49342;BME280;35210;41.606;-87.602;2023-05-19T07:39:21;99246.63;;;18.77;41.07
49342;BME280;35210;41.606;-87.602;2023-05-19T07:41:52;99249.91;;;18.87;40.46
49342;BME280;35210;41.606;-87.602;2023-05-19T07:44:21;99246.00;;;18.98;41.31
49342;BME280;35210;41.606;-87.602;2023-05-19T07:46:49;99248.81;;;19.04;41.88
49342;BME280;35210;41.606;-87.602;2023-05-19T07:49:17;99246.63;;;18.77;41.68
49342;BME280;35210;41.606;-87.602;2023-05-19T07:51:45;99246.31;;;18.72;42.44
49342;BME280;35210;41.606;-87.602;2023-05-19T07:54:13;99238.75;;;18.76;42.84
49342;BME280;35210;41.606;-87.602;2023-05-19T07:56:44;99231.97;;;18.65;43.70
49342;BME280;35210;41.606;-87.602;2023-05-19T07:59:13;99237.88;;;18.83;43.84
49342;BME280;35210;41.606;-87.602;2023-05-19T08:01:42;99235.66;;;18.64;44.15
49342;BME280;35210;41.606;-87.602;2023-05-19T08:04:10;99243.50;;;18.57;44.63
49342;BME280;35210;41.606;-87.602;2023-05-19T08:06:39;99240.59;;;18.75;44.76
49342;BME280;35210;41.606;-87.602;2023-05-19T08:09:07;99239.47;;;18.69;45.16
49342;BME280;35210;41.606;-87.602;2023-05-19T08:11:35;99254.03;;;18.67;45.33
49342;BME280;35210;41.606;-87.602;2023-05-19T08:14:05;99245.16;;;18.58;46.22
49342;BME280;35210;41.606;-87.602;2023-05-19T08:16:33;99249.84;;;18.64;46.50
49342;BME280;35210;41.606;-87.602;2023-05-19T08:19:01;99256.69;;;18.59;47.22
49342;BME280;35210;41.606;-87.602;2023-05-19T08:21:30;99249.28;;;18.77;47.27
49342;BME280;35210;41.606;-87.602;2023-05-19T08:23:59;99247.63;;;18.76;47.40
49342;BME280;35210;41.606;-87.602;2023-05-19T08:26:28;99243.66;;;18.64;48.09
49342;BME280;35210;41.606;-87.602;2023-05-19T08:28:56;99236.22;;;18.82;47.55
49342;BME280;35210;41.606;-87.602;2023-05-19T08:31:31;99251.69;;;18.64;48.69
49342;BME280;35210;41.606;-87.602;2023-05-19T08:34:00;99251.03;;;18.62;48.66
49342;BME280;35210;41.606;-87.602;2023-05-19T08:36:28;99247.50;;;18.69;48.88
49342;BME280;35210;41.606;-87.602;2023-05-19T08:38:56;99243.25;;;18.83;48.93
49342;BME280;35210;41.606;-87.602;2023-05-19T08:41:24;99242.19;;;18.92;49.05
49342;BME280;35210;41.606;-87.602;2023-05-19T08:43:53;99239.91;;;18.81;49.89
49342;BME280;35210;41.606;-87.602;2023-05-19T08:46:24;99233.56;;;18.82;50.03
49342;BME280;35210;41.606;-87.602;2023-05-19T08:49:03;99230.75;;;18.76;50.11
49342;BME280;35210;41.606;-87.602;2023-05-19T08:51:38;99240.56;;;18.83;50.28
49342;BME280;35210;41.606;-87.602;2023-05-19T08:54:13;99232.06;;;18.80;50.73
49342;BME280;35210;41.606;-87.602;2023-05-19T08:56:43;99247.34;;;18.63;51.29
49342;BME280;35210;41.606;-87.602;2023-05-19T08:59:12;99236.66;;;18.63;52.05
49342;BME280;35210;41.606;-87.602;2023-05-19T09:01:42;99234.94;;;18.70;51.92
49342;BME280;35210;41.606;-87.602;2023-05-19T09:04:13;99238.25;;;18.80;51.93
49342;BME280;35210;41.606;-87.602;2023-05-19T09:06:42;99230.34;;;18.56;52.74
49342;BME280;35210;41.606;-87.602;2023-05-19T09:09:11;99243.03;;;18.54;53.25
49342;BME280;35210;41.606;-87.602;2023-05-19T09:11:39;99224.91;;;18.72;53.06
49342;BME280;35210;41.606;-87.602;2023-05-19T09:14:07;99236.22;;;18.82;52.82
49342;BME280;35210;41.606;-87.602;2023-05-19T09:16:36;99232.59;;;18.75;53.28
49342;BME280;35210;41.606;-87.602;2023-05-19T09:19:04;99222.19;;;18.80;53.10
49342;BME280;35210;41.606;-87.602;2023-05-19T09:21:35;99221.22;;;18.73;53.66
49342;BME280;35210;41.606;-87.602;2023-05-19T09:24:04;99213.50;;;18.78;53.74
49342;BME280;35210;41.606;-87.602;2023-05-19T09:26:36;99218.19;;;18.76;54.10
49342;BME280;35210;41.606;-87.602;2023-05-19T09:29:12;99218.25;;;18.68;54.51
49342;BME280;35210;41.606;-87.602;2023-05-19T09:31:47;99218.88;;;18.39;55.25
49342;BME280;35210;41.606;-87.602;2023-05-19T09:34:16;99220.84;;;18.45;55.63
49342;BME280;35210;41.606;-87.602;2023-05-19T09:36:48;99217.59;;;18.58;55.51
49342;BME280;35210;41.606;-87.602;2023-05-19T09:39:19;99226.28;;;18.60;55.62
49342;BME280;35210;41.606;-87.602;2023-05-19T09:41:50;99229.06;;;18.35;56.43
49342;BME280;35210;41.606;-87.602;2023-05-19T09:44:21;99220.38;;;18.42;56.47
49342;BME280;35210;41.606;-87.602;2023-05-19T09:46:55;99224.06;;;18.32;56.83
49342;BME280;35210;41.606;-87.602;2023-05-19T09:49:24;99218.94;;;18.23;57.67
49342;BME280;35210;41.606;-87.602;2023-05-19T09:51:57;99217.63;;;18.11;57.80
49342;BME280;35210;41.606;-87.602;2023-05-19T09:54:26;99215.44;;;18.14;57.65
49342;BME280;35210;41.606;-87.602;2023-05-19T09:56:58;99221.63;;;18.06;58.55
49342;BME280;35210;41.606;-87.602;2023-05-19T09:59:27;99214.16;;;17.94;59.21
49342;BME280;35210;41.606;-87.602;2023-05-19T10:01:57;99208.47;;;17.97;59.45
49342;BME280;35210;41.606;-87.602;2023-05-19T10:04:26;99201.53;;;17.80;60.47
49342;BME280;35210;41.606;-87.602;2023-05-19T10:06:57;99204.84;;;17.82;60.48
49342;BME280;35210;41.606;-87.602;2023-05-19T10:09:26;99216.47;;;18.05;59.79
49342;BME280;35210;41.606;-87.602;2023-05-19T10:11:57;99215.81;;;17.95;61.13
49342;BME280;35210;41.606;-87.602;2023-05-19T10:14:26;99212.81;;;17.98;61.84
49342;BME280;35210;41.606;-87.602;2023-05-19T10:16:55;99220.63;;;18.08;61.71
49342;BME280;35210;41.606;-87.602;2023-05-19T10:19:25;99226.63;;;18.18;61.71
49342;BME280;35210;41.606;-87.602;2023-05-19T10:21:55;99221.41;;;18.24;61.86
49342;BME280;35210;41.606;-87.602;2023-05-19T10:24:23;99229.72;;;18.37;61.32
49342;BME280;35210;41.606;-87.602;2023-05-19T10:26:55;99235.59;;;18.33;62.61
49342;BME280;35210;41.606;-87.602;2023-05-19T10:29:27;99232.56;;;18.36;62.68
49342;BME280;35210;41.606;-87.602;2023-05-19T10:32:00;99240.94;;;18.33;62.83
49342;BME280;35210;41.606;-87.602;2023-05-19T10:34:54;99245.03;;;18.04;64.84
49342;BME280;35210;41.606;-87.602;2023-05-19T10:37:38;99246.16;;;18.18;64.46
49342;BME280;35210;41.606;-87.602;2023-05-19T10:40:28;99246.81;;;18.20;65.22
49342;BME280;35210;41.606;-87.602;2023-05-19T10:43:05;99250.50;;;18.19;65.19
49342;BME280;35210;41.606;-87.602;2023-05-19T10:45:46;99251.47;;;18.34;64.98
49342;BME280;35210;41.606;-87.602;2023-05-19T10:48:15;99255.31;;;18.32;65.61
49342;BME280;35210;41.606;-87.602;2023-05-19T10:50:44;99244.16;;;18.20;66.33
49342;BME280;35210;41.606;-87.602;2023-05-19T10:53:18;99244.81;;;18.22;67.00
49342;BME280;35210;41.606;-87.602;2023-05-19T10:55:51;99240.50;;;18.13;67.90
49342;BME280;35210;41.606;-87.602;2023-05-19T10:58:37;99241.97;;;18.24;67.69
49342;BME280;35210;41.606;-87.602;2023-05-19T11:01:12;99242.81;;;18.24;67.98
49342;BME280;35210;41.606;-87.602;2023-05-19T11:03:47;99245.78;;;18.29;68.43
49342;BME280;35210;41.606;-87.602;2023-05-19T11:06:24;99244.81;;;18.22;69.06
49342;BME280;35210;41.606;-87.602;2023-05-19T11:08:56;99242.97;;;18.23;69.31
49342;BME280;35210;41.606;-87.602;2023-05-19T11:11:26;99247.81;;;18.27;69.41
49342;BME280;35210;41.606;-87.602;2023-05-19T11:14:10;99251.00;;;18.23;70.36
49342;BME280;35210;41.606;-87.602;2023-05-19T11:16:39;99262.47;;;18.39;70.16
49342;BME280;35210;41.606;-87.602;2023-05-19T11:19:08;99263.13;;;18.42;70.39
49342;BME280;35210;41.606;-87.602;2023-05-19T11:21:47;99262.44;;;18.48;71.07
49342;BME280;35210;41.606;-87.602;2023-05-19T11:24:39;99261.50;;;18.32;72.64
49342;BME280;35210;41.606;-87.602;2023-05-19T11:27:19;99271.00;;;18.35;72.52
49342;BME280;35210;41.606;-87.602;2023-05-19T11:29:47;99272.47;;;18.46;72.12
49342;BME280;35210;41.606;-87.602;2023-05-19T11:32:16;99290.81;;;18.57;71.54
49342;BME280;35210;41.606;-87.602;2023-05-19T11:34:47;99345.13;;;18.65;71.82
49342;BME280;35210;41.606;-87.602;2023-05-19T11:37:15;99302.00;;;18.60;75.04
49342;BME280;35210;41.606;-87.602;2023-05-19T11:39:46;99325.56;;;18.65;75.34
49342;BME280;35210;41.606;-87.602;2023-05-19T11:42:15;99306.81;;;18.73;76.30
49342;BME280;35210;41.606;-87.602;2023-05-19T11:44:44;99339.53;;;18.83;75.07
49342;BME280;35210;41.606;-87.602;2023-05-19T11:47:13;99293.25;;;18.83;77.15
49342;BME280;35210;41.606;-87.602;2023-05-19T11:49:43;99329.13;;;18.96;76.03
49342;BME280;35210;41.606;-87.602;2023-05-19T11:52:11;99295.97;;;19.06;75.69
49342;BME280;35210;41.606;-87.602;2023-05-19T11:54:39;99312.84;;;19.06;76.42
49342;BME280;35210;41.606;-87.602;2023-05-19T11:57:10;99303.66;;;19.09;75.37
49342;BME280;35210;41.606;-87.602;2023-05-19T11:59:39;99329.88;;;19.13;75.43
49342;BME280;35210;41.606;-87.602;2023-05-19T12:02:16;99312.16;;;19.12;76.79
49342;BME280;35210;41.606;-87.602;2023-05-19T12:04:44;99315.16;;;19.17;76.11
49342;BME280;35210;41.606;-87.602;2023-05-19T12:07:13;99322.13;;;19.26;75.81
49342;BME280;35210;41.606;-87.602;2023-05-19T12:09:43;99310.69;;;19.32;75.98
49342;BME280;35210;41.606;-87.602;2023-05-19T12:12:15;99322.03;;;19.34;76.37
49342;BME280;35210;41.606;-87.602;2023-05-19T12:14:45;99315.16;;;19.40;75.77
49342;BME280;35210;41.606;-87.602;2023-05-19T12:17:14;99304.09;;;19.43;76.99
49342;BME280;35210;41.606;-87.602;2023-05-19T12:19:43;99301.59;;;19.42;77.45
49342;BME280;35210;41.606;-87.602;2023-05-19T12:22:14;99293.00;;;19.46;77.24
49342;BME280;35210;41.606;-87.602;2023-05-19T12:24:43;99285.69;;;19.40;78.72
49342;BME280;35210;41.606;-87.602;2023-05-19T12:27:13;99301.38;;;19.51;78.26
49342;BME280;35210;41.606;-87.602;2023-05-19T12:29:48;99296.16;;;19.58;78.81
49342;BME280;35210;41.606;-87.602;2023-05-19T12:32:18;99296.44;;;19.63;78.63
49342;BME280;35210;41.606;-87.602;2023-05-19T12:34:49;99289.25;;;19.63;78.83
49342;BME280;35210;41.606;-87.602;2023-05-19T12:37:17;99285.56;;;19.64;79.38
49342;BME280;35210;41.606;-87.602;2023-05-19T12:39:47;99282.81;;;19.73;79.06
49342;BME280;35210;41.606;-87.602;2023-05-19T12:42:16;99279.94;;;19.74;79.01
49342;BME280;35210;41.606;-87.602;2023-05-19T12:44:47;99275.53;;;19.81;79.21
49342;BME280;35210;41.606;-87.602;2023-05-19T12:47:17;99279.69;;;19.84;79.08
49342;BME280;35210;41.606;-87.602;2023-05-19T12:49:55;99280.81;;;19.89;78.80
49342;BME280;35210;41.606;-87.602;2023-05-19T12:52:23;99290.63;;;19.97;79.22
49342;BME280;35210;41.606;-87.602;2023-05-19T12:54:57;99290.28;;;20.00;79.00
49342;BME280;35210;41.606;-87.602;2023-05-19T12:57:26;99284.06;;;19.99;78.86